createdAt,value
2019-04-25T00:01:57.853Z,18.00
2019-04-25T00:04:28.278Z,18.00
2019-04-25T00:06:57.711Z,18.00
2019-04-25T00:09:28.526Z,17.90
2019-04-25T00:11:59.664Z,17.90
2019-04-25T00:14:31.440Z,17.80
2019-04-25T00:17:01.710Z,17.80
2019-04-25T00:19:31.712Z,17.80
2019-04-25T00:22:06.474Z,17.70
2019-04-25T00:25:12.893Z,17.70
2019-04-25T00:27:32.650Z,17.70
2019-04-25T00:30:02.202Z,17.60
2019-04-25T00:32:32.134Z,17.60
2019-04-25T00:35:02.030Z,17.60
2019-04-25T00:37:32.308Z,17.60
2019-04-25T00:40:02.150Z,17.50
2019-04-25T00:42:31.979Z,17.50
2019-04-25T00:45:02.344Z,17.50
2019-04-25T00:47:31.989Z,17.50
2019-04-25T00:50:02.323Z,17.40
2019-04-25T00:52:31.921Z,17.40
2019-04-25T00:55:01.910Z,17.30
2019-04-25T00:57:32.933Z,17.30
2019-04-25T01:00:21.577Z,17.30
2019-04-25T01:02:53.379Z,17.30
2019-04-25T01:05:23.249Z,17.20
2019-04-25T01:07:53.550Z,17.10
2019-04-25T01:10:23.997Z,17.10
2019-04-25T01:12:53.553Z,17.10
2019-04-25T01:15:23.468Z,17.10
2019-04-25T01:17:53.451Z,17.10
2019-04-25T01:20:23.966Z,17.00
2019-04-25T01:22:55.482Z,17.00
2019-04-25T01:25:24.765Z,17.00
2019-04-25T01:27:54.804Z,16.90
2019-04-25T01:30:25.769Z,16.90
2019-04-25T01:32:55.501Z,16.90
2019-04-25T01:35:33.541Z,16.80
2019-04-25T01:38:18.306Z,16.80
2019-04-25T01:40:58.462Z,16.80
2019-04-25T01:43:48.415Z,16.70
2019-04-25T01:46:18.271Z,16.70
2019-04-25T01:48:48.524Z,16.70
2019-04-25T01:51:18.122Z,16.60
2019-04-25T01:53:48.995Z,16.60
2019-04-25T01:56:18.530Z,16.60
2019-04-25T01:58:47.962Z,16.50
2019-04-25T02:01:17.470Z,16.50
2019-04-25T02:03:46.925Z,16.50
2019-04-25T02:06:16.594Z,16.50
2019-04-25T02:08:46.034Z,16.40
2019-04-25T02:11:37.340Z,16.40
2019-04-25T02:14:08.001Z,16.40
2019-04-25T02:16:37.465Z,16.30
2019-04-25T02:19:07.105Z,16.30
2019-04-25T02:21:36.583Z,16.30
2019-04-25T02:24:06.046Z,16.30
2019-04-25T02:26:35.509Z,16.20
2019-04-25T02:29:04.960Z,16.20
2019-04-25T02:31:35.002Z,16.20
2019-04-25T02:34:08.531Z,16.10
2019-04-25T02:36:36.331Z,16.10
2019-04-25T02:39:14.756Z,16.10
2019-04-25T02:41:44.534Z,16.10
2019-04-25T02:44:14.594Z,16.00
2019-04-25T02:47:18.415Z,16.00
2019-04-25T02:50:15.132Z,16.00
2019-04-25T02:52:49.426Z,15.90
2019-04-25T02:55:30.882Z,15.90
2019-04-25T02:57:49.995Z,15.90
2019-04-25T03:00:25.780Z,15.80
2019-04-25T03:02:57.328Z,15.80
2019-04-25T03:05:26.373Z,15.80
2019-04-25T03:07:57.753Z,15.80
2019-04-25T03:10:27.081Z,15.70
2019-04-25T03:12:58.395Z,15.70
2019-04-25T03:15:27.853Z,15.60
2019-04-25T03:17:58.628Z,15.60
2019-04-25T03:20:40.806Z,15.60
2019-04-25T03:23:15.584Z,15.60
2019-04-25T03:25:45.018Z,15.60
2019-04-25T03:28:15.661Z,15.60
2019-04-25T03:30:45.177Z,15.50
2019-04-25T03:33:19.268Z,15.50
2019-04-25T03:35:45.834Z,15.50
2019-04-25T03:38:15.351Z,15.40
2019-04-25T03:40:44.774Z,15.40
2019-04-25T03:43:15.032Z,15.40
2019-04-25T03:45:45.325Z,15.30
2019-04-25T03:48:14.946Z,15.30
2019-04-25T03:50:44.438Z,15.30
2019-04-25T03:53:14.043Z,15.30
2019-04-25T03:55:44.361Z,15.20
2019-04-25T03:58:14.660Z,15.20
2019-04-25T04:00:44.880Z,15.20
2019-04-25T04:03:15.151Z,15.10
2019-04-25T04:05:44.748Z,15.10
2019-04-25T04:08:15.551Z,15.10
2019-04-25T04:10:45.332Z,15.10
2019-04-25T04:13:15.847Z,15.10
2019-04-25T04:15:45.374Z,15.00
2019-04-25T04:18:38.105Z,15.10
2019-04-25T04:21:25.365Z,15.10
2019-04-25T04:24:04.097Z,15.00
2019-04-25T04:26:33.772Z,14.90
2019-04-25T04:29:04.674Z,14.40
2019-04-25T04:31:34.293Z,14.60
2019-04-25T04:34:03.880Z,14.70
2019-04-25T04:36:33.841Z,14.70
2019-04-25T04:39:03.891Z,14.50
2019-04-25T04:41:33.872Z,14.30
2019-04-25T04:44:04.151Z,14.70
2019-04-25T04:46:34.055Z,14.70
2019-04-25T04:49:03.982Z,14.60
2019-04-25T04:51:33.725Z,14.50
2019-04-25T04:54:03.500Z,14.50
2019-04-25T04:56:34.194Z,14.90
2019-04-25T04:59:03.799Z,15.30
2019-04-25T05:01:36.308Z,15.50
2019-04-25T05:04:16.051Z,15.60
2019-04-25T05:06:53.704Z,15.90
2019-04-25T05:09:26.718Z,16.10
2019-04-25T05:11:56.185Z,15.60
2019-04-25T05:14:26.673Z,15.10
2019-04-25T05:16:57.797Z,15.20
2019-04-25T05:19:27.374Z,15.80
2019-04-25T05:21:56.866Z,16.50
2019-04-25T05:24:26.550Z,16.70
2019-04-25T05:26:56.077Z,17.00
2019-04-25T05:29:26.631Z,17.20
2019-04-25T05:31:58.090Z,17.50
2019-04-25T05:34:27.520Z,17.70
2019-04-25T05:36:57.010Z,17.90
2019-04-25T05:39:26.450Z,18.20
2019-04-25T05:42:17.317Z,17.90
2019-04-25T05:44:47.601Z,19.10
2019-04-25T05:47:17.998Z,18.60
2019-04-25T05:49:48.173Z,19.30
2019-04-25T05:52:19.901Z,19.00
2019-04-25T05:54:49.692Z,18.70
2019-04-25T05:57:19.453Z,18.90
2019-04-25T05:59:49.417Z,18.80
2019-04-25T06:02:20.081Z,18.40
2019-04-25T06:04:53.388Z,18.30
2019-04-25T06:07:25.425Z,19.30
2019-04-25T06:10:14.267Z,19.10
2019-04-25T06:13:01.460Z,18.90
2019-04-25T06:15:33.275Z,17.90
2019-04-25T06:18:13.982Z,17.60
2019-04-25T06:20:44.269Z,17.10
2019-04-25T06:23:41.998Z,17.30
2019-04-25T06:26:22.906Z,17.50
2019-04-25T06:28:53.589Z,17.10
2019-04-25T06:31:16.456Z,16.70
2019-04-25T06:33:46.335Z,17.00
2019-04-25T06:36:16.822Z,17.10
2019-04-25T06:38:47.420Z,17.10
2019-04-25T06:41:17.351Z,17.10
2019-04-25T06:43:48.971Z,17.10
2019-04-25T06:46:36.475Z,17.00
2019-04-25T06:49:20.234Z,16.90
2019-04-25T06:51:54.607Z,17.10
2019-04-25T06:54:25.773Z,16.90
2019-04-25T06:56:56.383Z,17.10
2019-04-25T06:59:27.543Z,17.20
2019-04-25T07:01:57.885Z,16.90
2019-04-25T07:04:28.290Z,16.70
2019-04-25T07:07:09.778Z,16.90
2019-04-25T07:09:31.137Z,17.00
2019-04-25T07:12:01.342Z,16.80
2019-04-25T07:14:31.553Z,17.00
2019-04-25T07:17:02.369Z,17.00
2019-04-25T07:19:33.934Z,17.00
2019-04-25T07:22:04.495Z,17.30
2019-04-25T07:24:35.394Z,18.10
2019-04-25T07:27:30.598Z,18.40
2019-04-25T07:30:27.238Z,18.80
2019-04-25T07:32:55.157Z,19.20
2019-04-25T07:35:25.347Z,19.70
2019-04-25T07:37:55.442Z,19.20
2019-04-25T07:40:27.421Z,19.80
2019-04-25T07:42:57.327Z,20.90
2019-04-25T07:45:27.244Z,20.30
2019-04-25T07:47:57.137Z,20.50
2019-04-25T07:50:27.070Z,21.20
2019-04-25T07:52:57.279Z,20.40
2019-04-25T07:55:27.558Z,20.50
2019-04-25T07:57:57.582Z,20.30
2019-04-25T08:00:27.935Z,19.10
2019-04-25T08:02:58.111Z,19.70
2019-04-25T08:05:28.161Z,20.10
2019-04-25T08:07:57.959Z,20.10
2019-04-25T08:10:30.021Z,19.90
2019-04-25T08:13:00.051Z,20.30
2019-04-25T08:15:53.844Z,20.10
2019-04-25T08:18:25.429Z,20.40
2019-04-25T08:20:56.071Z,20.10
2019-04-25T08:23:27.015Z,20.20
2019-04-25T08:25:57.578Z,20.10
2019-04-25T08:28:28.018Z,20.10
2019-04-25T08:30:57.950Z,20.30
2019-04-25T08:33:27.981Z,20.30
2019-04-25T08:36:06.618Z,20.60
2019-04-25T08:38:31.411Z,20.60
2019-04-25T08:41:01.783Z,20.90
2019-04-25T08:43:32.489Z,20.70
2019-04-25T08:46:04.223Z,20.40
2019-04-25T08:48:38.290Z,20.60
2019-04-25T08:51:16.339Z,21.20
2019-04-25T08:53:53.806Z,20.70
2019-04-25T08:56:27.886Z,21.00
2019-04-25T08:59:07.917Z,21.10
2019-04-25T09:01:45.133Z,21.30
2019-04-25T09:04:36.003Z,21.80
2019-04-25T09:07:06.804Z,21.90
2019-04-25T09:09:37.640Z,22.10
2019-04-25T09:12:07.656Z,22.10
2019-04-25T09:14:37.828Z,23.20
2019-04-25T09:17:07.525Z,22.30
2019-04-25T09:19:38.382Z,23.00
2019-04-25T09:22:08.323Z,22.90
2019-04-25T09:24:39.024Z,22.80
2019-04-25T09:27:09.666Z,22.90
2019-04-25T09:29:39.754Z,22.30
2019-04-25T09:32:09.805Z,22.40
2019-04-25T09:34:39.775Z,22.40
2019-04-25T09:37:10.395Z,22.40
2019-04-25T09:40:04.247Z,22.40
2019-04-25T09:42:35.567Z,22.40
2019-04-25T09:45:26.453Z,22.20
2019-04-25T09:47:58.117Z,22.30
2019-04-25T09:50:46.437Z,22.50
2019-04-25T09:53:23.224Z,22.60
2019-04-25T09:55:56.300Z,22.00
2019-04-25T09:58:34.490Z,22.70
2019-04-25T10:01:09.576Z,21.80
2019-04-25T10:03:39.664Z,22.20
2019-04-25T10:06:09.757Z,23.60
2019-04-25T10:08:39.494Z,23.60
2019-04-25T10:11:09.046Z,23.90
2019-04-25T10:13:40.035Z,23.90
2019-04-25T10:16:12.919Z,24.10
2019-04-25T10:18:43.691Z,24.20
2019-04-25T10:21:14.789Z,24.10
2019-04-25T10:23:46.467Z,24.10
2019-04-25T10:26:16.567Z,23.80
2019-04-25T10:28:46.360Z,23.70
2019-04-25T10:31:16.178Z,23.80
2019-04-25T10:33:47.002Z,23.30
2019-04-25T10:36:17.906Z,24.40
2019-04-25T10:39:02.142Z,24.50
2019-04-25T10:41:20.046Z,24.40
2019-04-25T10:43:50.475Z,24.60
2019-04-25T10:46:21.921Z,24.70
2019-04-25T10:48:54.062Z,24.40
2019-04-25T10:51:24.041Z,23.90
2019-04-25T10:53:55.013Z,23.90
2019-04-25T10:56:26.312Z,23.50
2019-04-25T10:58:56.566Z,24.20
2019-04-25T11:01:26.435Z,23.70
2019-04-25T11:04:07.742Z,24.20
2019-04-25T11:06:37.924Z,23.80
2019-04-25T11:09:09.884Z,24.00
2019-04-25T11:11:40.723Z,24.60
2019-04-25T11:14:10.826Z,24.60
2019-04-25T11:16:40.786Z,24.50
2019-04-25T11:19:10.721Z,24.30
2019-04-25T11:21:41.262Z,24.20
2019-04-25T11:24:11.346Z,24.80
2019-04-25T11:26:41.585Z,25.00
2019-04-25T11:29:13.306Z,24.90
2019-04-25T11:31:47.331Z,24.30
2019-04-25T11:34:19.040Z,24.70
2019-04-25T11:36:48.992Z,24.90
2019-04-25T11:39:54.596Z,24.90
2019-04-25T11:42:25.391Z,24.70
2019-04-25T11:44:55.585Z,24.70
2019-04-25T11:47:25.762Z,24.80
2019-04-25T11:49:55.854Z,24.70
2019-04-25T11:52:28.379Z,24.70
2019-04-25T11:54:57.494Z,25.10
2019-04-25T11:57:27.410Z,25.10
2019-04-25T11:59:58.013Z,25.10
2019-04-25T12:02:28.431Z,25.10
2019-04-25T12:04:58.510Z,25.10
2019-04-25T12:07:29.498Z,25.00
2019-04-25T12:09:59.491Z,24.80
2019-04-25T12:12:29.303Z,24.50
2019-04-25T12:14:59.189Z,24.70
2019-04-25T12:17:29.150Z,24.80
2019-04-25T12:19:59.250Z,24.70
2019-04-25T12:22:29.141Z,24.70
2019-04-25T12:24:59.191Z,24.40
2019-04-25T12:27:29.120Z,23.90
2019-04-25T12:29:59.556Z,24.00
2019-04-25T12:32:29.397Z,23.90
2019-04-25T12:34:59.478Z,23.80
2019-04-25T12:37:29.286Z,23.80
2019-04-25T12:39:59.091Z,23.80
2019-04-25T12:42:29.141Z,23.90
2019-04-25T12:45:26.901Z,23.90
2019-04-25T12:47:59.184Z,24.10
2019-04-25T12:50:30.184Z,24.00
2019-04-25T12:53:00.561Z,24.00
2019-04-25T12:55:30.532Z,24.10
2019-04-25T12:58:00.674Z,24.10
2019-04-25T13:00:30.759Z,23.80
2019-04-25T13:03:01.562Z,23.90
2019-04-25T13:05:31.550Z,23.80
2019-04-25T13:08:01.394Z,24.20
2019-04-25T13:10:33.191Z,24.30
2019-04-25T13:13:03.980Z,24.20
2019-04-25T13:15:34.851Z,23.80
2019-04-25T13:18:04.784Z,23.90
2019-04-25T13:20:35.321Z,23.90
2019-04-25T13:23:07.565Z,23.80
2019-04-25T13:25:37.356Z,24.00
2019-04-25T13:28:32.175Z,23.90
2019-04-25T13:31:19.492Z,23.60
2019-04-25T13:33:58.870Z,23.60
2019-04-25T13:36:28.880Z,23.80
2019-04-25T13:38:58.752Z,24.10
2019-04-25T13:41:28.863Z,24.10
2019-04-25T13:43:58.926Z,24.00
2019-04-25T13:46:28.728Z,23.80
2019-04-25T13:48:58.763Z,23.70
2019-04-25T13:51:28.637Z,23.70
2019-04-25T13:53:58.509Z,23.80
2019-04-25T13:56:29.242Z,23.90
2019-04-25T13:58:59.594Z,24.00
2019-04-25T14:01:31.785Z,24.00
2019-04-25T14:04:04.251Z,24.00
2019-04-25T14:06:34.389Z,24.00
2019-04-25T14:09:04.817Z,24.00
2019-04-25T14:11:35.675Z,24.20
2019-04-25T14:14:06.089Z,23.90
2019-04-25T14:16:47.612Z,23.70
2019-04-25T14:19:36.105Z,23.70
2019-04-25T14:22:06.754Z,24.10
2019-04-25T14:24:37.072Z,24.00
2019-04-25T14:27:06.959Z,24.00
2019-04-25T14:29:36.628Z,24.00
2019-04-25T14:32:08.075Z,23.90
2019-04-25T14:34:37.567Z,24.10
2019-04-25T14:37:07.126Z,24.00
2019-04-25T14:39:43.948Z,24.10
2019-04-25T14:42:13.371Z,24.10
2019-04-25T14:44:43.114Z,24.30
2019-04-25T14:47:12.557Z,24.30
2019-04-25T14:49:42.371Z,24.20
2019-04-25T14:52:12.121Z,24.20
2019-04-25T14:55:09.816Z,24.10
2019-04-25T14:57:39.324Z,24.10
2019-04-25T15:00:15.637Z,24.10
2019-04-25T15:02:45.186Z,24.00
2019-04-25T15:05:15.144Z,24.00
2019-04-25T15:07:45.073Z,24.00
2019-04-25T15:10:14.662Z,24.10
2019-04-25T15:12:44.162Z,24.20
2019-04-25T15:15:13.665Z,24.30
2019-04-25T15:17:46.474Z,24.40
2019-04-25T15:20:14.462Z,24.30
2019-04-25T15:22:44.005Z,24.30
2019-04-25T15:25:13.611Z,24.40
2019-04-25T15:27:43.109Z,24.40
2019-04-25T15:30:16.692Z,24.30
2019-04-25T15:32:46.260Z,24.50
2019-04-25T15:35:17.570Z,24.30
2019-04-25T15:37:52.750Z,24.20
2019-04-25T15:40:28.925Z,24.10
2019-04-25T15:43:27.552Z,24.00
2019-04-25T15:46:00.997Z,24.00
2019-04-25T15:48:31.081Z,23.90
2019-04-25T15:51:00.581Z,23.80
2019-04-25T15:53:30.644Z,23.80
2019-04-25T15:56:00.202Z,23.70
2019-04-25T15:58:29.858Z,23.80
2019-04-25T16:00:59.449Z,23.70
2019-04-25T16:03:30.774Z,23.80
2019-04-25T16:06:00.266Z,23.80
2019-04-25T16:08:30.754Z,23.70
2019-04-25T16:11:04.092Z,23.70
2019-04-25T16:13:34.428Z,23.60
2019-04-25T16:16:04.125Z,23.60
2019-04-25T16:18:33.610Z,23.70
2019-04-25T16:21:03.262Z,23.60
2019-04-25T16:23:32.739Z,23.60
2019-04-25T16:26:02.181Z,23.70
2019-04-25T16:28:31.764Z,23.60
2019-04-25T16:31:01.398Z,23.70
2019-04-25T16:33:30.911Z,23.60
2019-04-25T16:36:00.371Z,23.70
2019-04-25T16:38:29.851Z,23.60
2019-04-25T16:40:59.327Z,23.60
2019-04-25T16:43:31.001Z,23.60
2019-04-25T16:46:00.455Z,23.50
2019-04-25T16:48:30.020Z,23.50
2019-04-25T16:50:59.430Z,23.50
2019-04-25T16:53:28.948Z,23.40
2019-04-25T16:55:58.394Z,23.30
2019-04-25T16:58:28.592Z,23.30
2019-04-25T17:01:10.723Z,23.20
2019-04-25T17:03:41.396Z,23.20
2019-04-25T17:06:11.090Z,23.10
2019-04-25T17:08:40.556Z,23.00
2019-04-25T17:11:10.076Z,23.00
2019-04-25T17:13:45.228Z,23.00
2019-04-25T17:16:36.873Z,22.80
2019-04-25T17:19:09.734Z,22.80
2019-04-25T17:21:39.374Z,22.80
2019-04-25T17:24:08.949Z,23.00
2019-04-25T17:26:39.420Z,22.60
2019-04-25T17:29:13.105Z,22.70
2019-04-25T17:32:01.825Z,22.40
2019-04-25T17:34:50.555Z,22.60
2019-04-25T17:37:38.958Z,22.70
2019-04-25T17:40:14.873Z,22.70
2019-04-25T17:42:44.344Z,22.70
2019-04-25T17:45:17.906Z,22.50
2019-04-25T17:47:54.511Z,22.20
2019-04-25T17:50:18.507Z,22.40
2019-04-25T17:52:48.032Z,22.40
2019-04-25T17:55:17.476Z,22.30
2019-04-25T17:57:47.020Z,22.40
2019-04-25T18:00:25.479Z,22.20
2019-04-25T18:02:58.970Z,22.00
2019-04-25T18:08:06.163Z,22.00
2019-04-25T18:10:36.106Z,22.30
2019-04-25T18:13:09.466Z,22.10
2019-04-25T18:15:51.426Z,22.10
2019-04-25T18:18:32.526Z,22.10
2019-04-25T18:21:01.970Z,22.10
2019-04-25T18:23:50.361Z,22.20
2019-04-25T18:26:25.912Z,21.70
2019-04-25T18:29:02.440Z,21.90
2019-04-25T18:31:31.899Z,21.70
2019-04-25T18:34:04.305Z,21.60
2019-04-25T18:36:42.901Z,21.70
2019-04-25T18:39:40.367Z,21.80
2019-04-25T18:42:36.415Z,21.50
2019-04-25T18:45:07.034Z,21.60
2019-04-25T18:47:36.963Z,21.40
2019-04-25T18:50:07.968Z,21.50
2019-04-25T18:52:59.097Z,21.60
2019-04-25T18:55:34.862Z,21.40
2019-04-25T18:58:09.459Z,21.50
2019-04-25T19:00:45.826Z,21.20
2019-04-25T19:03:38.169Z,21.70
2019-04-25T19:06:11.155Z,21.60
2019-04-25T19:08:42.866Z,21.40
2019-04-25T19:11:12.530Z,21.30
2019-04-25T19:13:43.204Z,21.30
2019-04-25T19:16:12.802Z,21.30
2019-04-25T19:18:44.519Z,21.20
2019-04-25T19:21:13.428Z,21.50
2019-04-25T19:23:43.722Z,21.40
2019-04-25T19:26:13.370Z,21.40
2019-04-25T19:28:42.939Z,21.40
2019-04-25T19:31:12.419Z,20.60
2019-04-25T19:33:43.279Z,20.70
2019-04-25T19:36:12.839Z,21.00
2019-04-25T19:38:42.278Z,21.30
2019-04-25T19:41:17.274Z,21.20
2019-04-25T19:44:08.499Z,20.80
2019-04-25T19:46:41.224Z,20.70
2019-04-25T19:49:10.804Z,21.00
2019-04-25T19:51:41.660Z,21.20
2019-04-25T19:54:11.379Z,20.90
2019-04-25T19:56:42.231Z,21.00
2019-04-25T19:59:11.853Z,21.00
2019-04-25T20:01:42.474Z,21.10
2019-04-25T20:04:30.903Z,20.90
2019-04-25T20:07:31.563Z,20.80
2019-04-25T20:10:18.781Z,21.00
2019-04-25T20:12:51.774Z,21.00
2019-04-25T20:15:21.037Z,20.70
2019-04-25T20:17:50.514Z,20.60
2019-04-25T20:20:20.149Z,20.70
2019-04-25T20:22:50.257Z,20.60
2019-04-25T20:25:19.769Z,20.60
2019-04-25T20:27:50.860Z,21.00
2019-04-25T20:30:20.337Z,20.60
2019-04-25T20:32:49.840Z,20.70
2019-04-25T20:35:19.502Z,20.60
2019-04-25T20:37:49.269Z,20.70
2019-04-25T20:40:18.771Z,20.80
2019-04-25T20:42:48.448Z,20.80
2019-04-25T20:45:18.202Z,20.70
2019-04-25T20:47:47.930Z,20.70
2019-04-25T20:50:17.525Z,20.60
2019-04-25T20:52:47.416Z,20.40
2019-04-25T20:55:17.201Z,20.40
2019-04-25T20:57:46.917Z,20.50
2019-04-25T21:00:40.099Z,20.20
2019-04-25T21:03:10.185Z,20.50
2019-04-25T21:05:39.850Z,20.50
2019-04-25T21:08:09.354Z,20.50
2019-04-25T21:10:38.803Z,20.60
2019-04-25T21:13:11.736Z,20.20
2019-04-25T21:16:01.243Z,20.00
2019-04-25T21:18:49.665Z,20.30
2019-04-25T21:21:19.264Z,20.20
2019-04-25T21:23:48.709Z,20.20
2019-04-25T21:26:18.177Z,20.00
2019-04-25T21:28:47.689Z,20.00
2019-04-25T21:31:17.151Z,19.90
2019-04-25T21:33:46.633Z,19.40
2019-04-25T21:36:16.335Z,19.90
2019-04-25T21:38:45.929Z,19.70
2019-04-25T21:41:34.657Z,19.90
2019-04-25T21:44:05.564Z,20.00
2019-04-25T21:46:35.333Z,19.90
2019-04-25T21:49:05.098Z,20.10
2019-04-25T21:51:34.589Z,20.00
2019-04-25T21:54:04.135Z,19.90
2019-04-25T21:56:33.898Z,19.90
2019-04-25T21:59:04.129Z,20.00
2019-04-25T22:01:36.502Z,19.90
2019-04-25T22:04:06.031Z,19.80
2019-04-25T22:06:35.875Z,19.60
2019-04-25T22:09:10.400Z,19.60
2019-04-25T22:11:39.942Z,19.60
2019-04-25T22:14:09.950Z,19.80
2019-04-25T22:16:39.989Z,19.90
2019-04-25T22:19:10.661Z,19.90
2019-04-25T22:21:40.426Z,19.60
2019-04-25T22:24:14.212Z,19.60
2019-04-25T22:26:41.197Z,19.50
2019-04-25T22:29:10.914Z,19.70
2019-04-25T22:31:50.661Z,19.40
2019-04-25T22:34:52.001Z,19.50
2019-04-25T22:37:13.436Z,19.60
2019-04-25T22:39:43.194Z,19.50
2019-04-25T22:42:12.774Z,19.20
2019-04-25T22:44:42.518Z,19.30
2019-04-25T22:47:12.570Z,19.40
2019-04-25T22:49:42.136Z,19.50
2019-04-25T22:52:11.902Z,19.40
2019-04-25T22:54:41.347Z,19.20
2019-04-25T22:57:11.108Z,19.10
2019-04-25T22:59:41.185Z,19.30
2019-04-25T23:02:22.144Z,18.70
2019-04-25T23:05:16.680Z,18.60
2019-04-25T23:07:46.224Z,18.90
2019-04-25T23:10:15.964Z,18.90
2019-04-25T23:12:45.438Z,18.90
2019-04-25T23:15:15.407Z,19.00
2019-04-25T23:17:44.936Z,19.20
2019-04-25T23:20:16.278Z,19.20
2019-04-25T23:22:45.816Z,19.20
2019-04-25T23:25:17.104Z,19.20
2019-04-25T23:28:08.015Z,19.10
2019-04-25T23:31:00.750Z,19.20
2019-04-25T23:33:30.218Z,19.10
2019-04-25T23:35:59.762Z,19.00
2019-04-25T23:38:29.232Z,19.10
2019-04-25T23:40:58.668Z,18.90
2019-04-25T23:43:28.137Z,18.90
2019-04-25T23:45:57.582Z,18.70
2019-04-25T23:48:27.528Z,18.70
2019-04-25T23:50:56.958Z,18.60
2019-04-25T23:53:26.437Z,18.50
2019-04-25T23:55:55.903Z,18.10
2019-04-25T23:58:25.470Z,18.40
